sensor_id;sensor_type;location;lat;lon;timestamp;temperature;humidity
7942;HTU21D;4016;50.758;7.150;2023-09-19T00:01:35;16.11;118.99
7942;HTU21D;4016;50.758;7.150;2023-09-19T00:06:36;16.14;118.99
7942;HTU21D;4016;50.758;7.150;2023-09-19T00:11:37;16.14;118.99
7942;HTU21D;4016;50.758;7.150;2023-09-19T00:16:38;16.00;118.99
7942;HTU21D;4016;50.758;7.150;2023-09-19T00:21:39;15.97;118.99
7942;HTU21D;4016;50.758;7.150;2023-09-19T00:26:41;15.85;118.99
7942;HTU21D;4016;50.758;7.150;2023-09-19T00:31:44;15.86;118.99
7942;HTU21D;4016;50.758;7.150;2023-09-19T00:36:44;16.06;118.99
7942;HTU21D;4016;50.758;7.150;2023-09-19T00:41:45;15.97;118.99
7942;HTU21D;4016;50.758;7.150;2023-09-19T00:46:45;15.82;118.99
7942;HTU21D;4016;50.758;7.150;2023-09-19T00:51:49;15.87;118.99
7942;HTU21D;4016;50.758;7.150;2023-09-19T00:56:49;15.75;118.99
7942;HTU21D;4016;50.758;7.150;2023-09-19T01:01:51;15.76;118.99
7942;HTU21D;4016;50.758;7.150;2023-09-19T01:06:54;15.81;118.99
7942;HTU21D;4016;50.758;7.150;2023-09-19T01:11:58;15.82;118.99
7942;HTU21D;4016;50.758;7.150;2023-09-19T01:17:19;15.82;118.99
7942;HTU21D;4016;50.758;7.150;2023-09-19T01:22:53;15.92;118.99
7942;HTU21D;4016;50.758;7.150;2023-09-19T01:28:20;16.03;118.99
7942;HTU21D;4016;50.758;7.150;2023-09-19T01:33:26;16.10;118.99
7942;HTU21D;4016;50.758;7.150;2023-09-19T01:38:26;16.07;118.99
7942;HTU21D;4016;50.758;7.150;2023-09-19T01:43:32;16.18;118.99
7942;HTU21D;4016;50.758;7.150;2023-09-19T01:48:57;16.14;118.99
7942;HTU21D;4016;50.758;7.150;2023-09-19T01:54:09;16.13;118.99
7942;HTU21D;4016;50.758;7.150;2023-09-19T01:59:13;16.08;118.99
7942;HTU21D;4016;50.758;7.150;2023-09-19T02:04:16;16.19;118.99
7942;HTU21D;4016;50.758;7.150;2023-09-19T02:09:16;16.31;116.22
7942;HTU21D;4016;50.758;7.150;2023-09-19T02:14:17;16.25;115.54
7942;HTU21D;4016;50.758;7.150;2023-09-19T02:19:19;16.16;116.58
7942;HTU21D;4016;50.758;7.150;2023-09-19T02:24:21;16.17;116.99
7942;HTU21D;4016;50.758;7.150;2023-09-19T02:29:21;16.03;115.75
7942;HTU21D;4016;50.758;7.150;2023-09-19T02:34:22;16.05;116.01
7942;HTU21D;4016;50.758;7.150;2023-09-19T02:39:23;16.03;115.26
7942;HTU21D;4016;50.758;7.150;2023-09-19T02:44:23;15.96;113.78
7942;HTU21D;4016;50.758;7.150;2023-09-19T02:49:24;15.75;115.07
7942;HTU21D;4016;50.758;7.150;2023-09-19T02:54:25;15.76;115.48
7942;HTU21D;4016;50.758;7.150;2023-09-19T02:59:25;15.77;115.06
7942;HTU21D;4016;50.758;7.150;2023-09-19T03:04:26;15.78;114.99
7942;HTU21D;4016;50.758;7.150;2023-09-19T03:09:27;15.72;116.15
7942;HTU21D;4016;50.758;7.150;2023-09-19T03:14:27;15.61;117.60
7942;HTU21D;4016;50.758;7.150;2023-09-19T03:19:30;15.43;118.99
7942;HTU21D;4016;50.758;7.150;2023-09-19T03:24:33;15.39;118.99
7942;HTU21D;4016;50.758;7.150;2023-09-19T03:29:36;15.36;118.99
7942;HTU21D;4016;50.758;7.150;2023-09-19T03:34:37;15.22;118.99
7942;HTU21D;4016;50.758;7.150;2023-09-19T03:39:43;15.22;118.99
7942;HTU21D;4016;50.758;7.150;2023-09-19T03:44:43;15.03;118.99
7942;HTU21D;4016;50.758;7.150;2023-09-19T03:49:44;15.14;118.99
7942;HTU21D;4016;50.758;7.150;2023-09-19T03:54:44;14.98;118.99
7942;HTU21D;4016;50.758;7.150;2023-09-19T03:59:45;14.87;118.99
7942;HTU21D;4016;50.758;7.150;2023-09-19T04:04:45;14.75;118.99
7942;HTU21D;4016;50.758;7.150;2023-09-19T04:09:45;14.65;118.99
7942;HTU21D;4016;50.758;7.150;2023-09-19T04:14:46;14.55;118.99
7942;HTU21D;4016;50.758;7.150;2023-09-19T04:19:46;14.51;118.99
7942;HTU21D;4016;50.758;7.150;2023-09-19T04:24:47;14.44;118.99
7942;HTU21D;4016;50.758;7.150;2023-09-19T04:29:47;14.39;118.99
7942;HTU21D;4016;50.758;7.150;2023-09-19T04:34:48;14.29;118.99
7942;HTU21D;4016;50.758;7.150;2023-09-19T04:39:50;14.22;118.99
7942;HTU21D;4016;50.758;7.150;2023-09-19T04:44:50;14.15;118.99
7942;HTU21D;4016;50.758;7.150;2023-09-19T04:49:52;14.07;118.99
7942;HTU21D;4016;50.758;7.150;2023-09-19T04:54:53;13.98;118.99
7942;HTU21D;4016;50.758;7.150;2023-09-19T04:59:53;13.89;118.99
7942;HTU21D;4016;50.758;7.150;2023-09-19T05:04:54;13.93;118.99
7942;HTU21D;4016;50.758;7.150;2023-09-19T05:09:54;13.80;118.99
7942;HTU21D;4016;50.758;7.150;2023-09-19T05:14:54;13.80;118.99
7942;HTU21D;4016;50.758;7.150;2023-09-19T05:19:55;13.76;118.99
7942;HTU21D;4016;50.758;7.150;2023-09-19T05:24:55;13.80;118.99
7942;HTU21D;4016;50.758;7.150;2023-09-19T05:29:56;13.79;118.99
7942;HTU21D;4016;50.758;7.150;2023-09-19T05:34:56;13.83;118.99
7942;HTU21D;4016;50.758;7.150;2023-09-19T05:39:57;13.84;118.99
7942;HTU21D;4016;50.758;7.150;2023-09-19T05:44:57;13.91;118.99
7942;HTU21D;4016;50.758;7.150;2023-09-19T05:49:58;13.95;118.99
7942;HTU21D;4016;50.758;7.150;2023-09-19T05:54:59;14.26;118.99
7942;HTU21D;4016;50.758;7.150;2023-09-19T06:00:00;14.29;118.99
7942;HTU21D;4016;50.758;7.150;2023-09-19T06:05:00;14.42;118.99
7942;HTU21D;4016;50.758;7.150;2023-09-19T06:10:00;14.49;118.99
7942;HTU21D;4016;50.758;7.150;2023-09-19T06:15:01;14.66;118.99
7942;HTU21D;4016;50.758;7.150;2023-09-19T06:20:01;14.62;118.99
7942;HTU21D;4016;50.758;7.150;2023-09-19T06:25:04;14.66;118.99
7942;HTU21D;4016;50.758;7.150;2023-09-19T06:30:05;14.84;118.08
7942;HTU21D;4016;50.758;7.150;2023-09-19T06:35:07;14.80;118.99
7942;HTU21D;4016;50.758;7.150;2023-09-19T06:40:09;14.98;118.02
7942;HTU21D;4016;50.758;7.150;2023-09-19T06:45:17;15.06;115.83
7942;HTU21D;4016;50.758;7.150;2023-09-19T06:50:21;15.14;115.24
7942;HTU21D;4016;50.758;7.150;2023-09-19T06:55:25;15.26;114.86
7942;HTU21D;4016;50.758;7.150;2023-09-19T07:00:28;15.32;114.32
7942;HTU21D;4016;50.758;7.150;2023-09-19T07:05:31;15.39;113.81
7942;HTU21D;4016;50.758;7.150;2023-09-19T07:10:32;15.61;112.12
7942;HTU21D;4016;50.758;7.150;2023-09-19T07:15:33;15.72;112.71
7942;HTU21D;4016;50.758;7.150;2023-09-19T07:20:36;15.83;111.68
7942;HTU21D;4016;50.758;7.150;2023-09-19T07:25:38;15.99;109.54
7942;HTU21D;4016;50.758;7.150;2023-09-19T07:30:38;16.01;112.06
7942;HTU21D;4016;50.758;7.150;2023-09-19T07:35:48;16.27;106.93
7942;HTU21D;4016;50.758;7.150;2023-09-19T07:40:48;16.43;107.97
7942;HTU21D;4016;50.758;7.150;2023-09-19T07:45:48;16.62;107.06
7942;HTU21D;4016;50.758;7.150;2023-09-19T07:50:49;16.76;105.77
7942;HTU21D;4016;50.758;7.150;2023-09-19T07:55:50;16.80;105.18
7942;HTU21D;4016;50.758;7.150;2023-09-19T08:00:50;17.09;104.12
7942;HTU21D;4016;50.758;7.150;2023-09-19T08:05:51;17.18;104.38
7942;HTU21D;4016;50.758;7.150;2023-09-19T08:10:55;17.31;100.54
7942;HTU21D;4016;50.758;7.150;2023-09-19T08:15:56;17.35;103.47
7942;HTU21D;4016;50.758;7.150;2023-09-19T08:20:56;17.64;102.92
7942;HTU21D;4016;50.758;7.150;2023-09-19T08:25:58;17.87;98.05
7942;HTU21D;4016;50.758;7.150;2023-09-19T08:31:04;17.91;100.03
7942;HTU21D;4016;50.758;7.150;2023-09-19T08:36:07;17.94;95.75
7942;HTU21D;4016;50.758;7.150;2023-09-19T08:41:09;18.03;96.20
7942;HTU21D;4016;50.758;7.150;2023-09-19T08:46:11;18.10;95.59
7942;HTU21D;4016;50.758;7.150;2023-09-19T08:51:30;18.43;93.58
7942;HTU21D;4016;50.758;7.150;2023-09-19T08:56:32;18.55;95.31
7942;HTU21D;4016;50.758;7.150;2023-09-19T09:01:33;18.54;88.15
7942;HTU21D;4016;50.758;7.150;2023-09-19T09:06:35;18.47;89.70
7942;HTU21D;4016;50.758;7.150;2023-09-19T09:11:36;18.54;89.95
7942;HTU21D;4016;50.758;7.150;2023-09-19T09:16:40;18.64;87.96
7942;HTU21D;4016;50.758;7.150;2023-09-19T09:21:40;18.78;89.57
7942;HTU21D;4016;50.758;7.150;2023-09-19T09:26:41;18.85;88.54
7942;HTU21D;4016;50.758;7.150;2023-09-19T09:31:43;18.88;87.15
7942;HTU21D;4016;50.758;7.150;2023-09-19T09:36:48;18.89;84.03
7942;HTU21D;4016;50.758;7.150;2023-09-19T09:41:48;18.88;86.36
7942;HTU21D;4016;50.758;7.150;2023-09-19T09:46:48;18.82;82.90
7942;HTU21D;4016;50.758;7.150;2023-09-19T09:52:12;18.86;84.84
7942;HTU21D;4016;50.758;7.150;2023-09-19T09:57:18;19.14;83.03
7942;HTU21D;4016;50.758;7.150;2023-09-19T10:02:30;19.11;81.10
7942;HTU21D;4016;50.758;7.150;2023-09-19T10:07:37;19.27;81.14
7942;HTU21D;4016;50.758;7.150;2023-09-19T10:12:44;19.21;78.82
7942;HTU21D;4016;50.758;7.150;2023-09-19T10:17:52;19.42;81.43
7942;HTU21D;4016;50.758;7.150;2023-09-19T10:23:09;19.63;76.79
7942;HTU21D;4016;50.758;7.150;2023-09-19T10:28:12;19.63;72.58
7942;HTU21D;4016;50.758;7.150;2023-09-19T10:33:14;19.61;72.97
7942;HTU21D;4016;50.758;7.150;2023-09-19T10:38:19;19.80;73.80
7942;HTU21D;4016;50.758;7.150;2023-09-19T10:43:25;20.05;68.91
7942;HTU21D;4016;50.758;7.150;2023-09-19T10:48:26;20.21;65.62
7942;HTU21D;4016;50.758;7.150;2023-09-19T10:53:31;20.43;67.55
7942;HTU21D;4016;50.758;7.150;2023-09-19T10:58:40;20.76;66.52
7942;HTU21D;4016;50.758;7.150;2023-09-19T11:03:44;20.87;62.05
7942;HTU21D;4016;50.758;7.150;2023-09-19T11:08:55;20.72;61.00
7942;HTU21D;4016;50.758;7.150;2023-09-19T11:19:20;20.48;61.28
7942;HTU21D;4016;50.758;7.150;2023-09-19T11:29:28;21.09;64.80
7942;HTU21D;4016;50.758;7.150;2023-09-19T11:39:36;21.07;62.80
7942;HTU21D;4016;50.758;7.150;2023-09-19T11:44:38;21.06;58.51
7942;HTU21D;4016;50.758;7.150;2023-09-19T11:49:41;21.22;58.75
7942;HTU21D;4016;50.758;7.150;2023-09-19T11:54:42;21.39;56.75
7942;HTU21D;4016;50.758;7.150;2023-09-19T11:59:46;21.54;56.16
7942;HTU21D;4016;50.758;7.150;2023-09-19T12:04:53;21.58;54.54
7942;HTU21D;4016;50.758;7.150;2023-09-19T12:10:04;21.59;56.52
7942;HTU21D;4016;50.758;7.150;2023-09-19T12:15:05;21.79;55.76
7942;HTU21D;4016;50.758;7.150;2023-09-19T12:20:07;21.83;52.35
7942;HTU21D;4016;50.758;7.150;2023-09-19T12:25:14;21.92;55.00
7942;HTU21D;4016;50.758;7.150;2023-09-19T12:30:17;22.11;51.37
7942;HTU21D;4016;50.758;7.150;2023-09-19T12:35:33;22.27;52.75
7942;HTU21D;4016;50.758;7.150;2023-09-19T12:40:36;22.26;51.31
7942;HTU21D;4016;50.758;7.150;2023-09-19T12:45:38;22.36;51.78
7942;HTU21D;4016;50.758;7.150;2023-09-19T12:50:59;22.13;51.51
7942;HTU21D;4016;50.758;7.150;2023-09-19T12:56:00;22.18;52.43
7942;HTU21D;4016;50.758;7.150;2023-09-19T13:01:01;22.24;53.39
7942;HTU21D;4016;50.758;7.150;2023-09-19T13:06:05;22.33;52.02
7942;HTU21D;4016;50.758;7.150;2023-09-19T13:11:14;22.24;50.89
7942;HTU21D;4016;50.758;7.150;2023-09-19T13:16:16;22.26;52.24
7942;HTU21D;4016;50.758;7.150;2023-09-19T13:21:30;22.28;51.72
7942;HTU21D;4016;50.758;7.150;2023-09-19T13:26:38;22.21;50.72
7942;HTU21D;4016;50.758;7.150;2023-09-19T13:31:39;22.63;51.43
7942;HTU21D;4016;50.758;7.150;2023-09-19T13:36:41;22.58;49.47
7942;HTU21D;4016;50.758;7.150;2023-09-19T13:41:47;22.36;51.83
7942;HTU21D;4016;50.758;7.150;2023-09-19T13:46:47;22.21;52.78
7942;HTU21D;4016;50.758;7.150;2023-09-19T13:51:48;22.23;53.58
7942;HTU21D;4016;50.758;7.150;2023-09-19T13:56:48;22.36;54.84
7942;HTU21D;4016;50.758;7.150;2023-09-19T14:01:50;22.38;52.14
7942;HTU21D;4016;50.758;7.150;2023-09-19T14:06:50;22.19;52.11
7942;HTU21D;4016;50.758;7.150;2023-09-19T14:11:51;22.10;52.47
7942;HTU21D;4016;50.758;7.150;2023-09-19T14:16:52;21.92;52.88
7942;HTU21D;4016;50.758;7.150;2023-09-19T14:21:53;22.27;52.78
7942;HTU21D;4016;50.758;7.150;2023-09-19T14:26:56;22.38;52.65
7942;HTU21D;4016;50.758;7.150;2023-09-19T14:31:57;21.98;53.30
7942;HTU21D;4016;50.758;7.150;2023-09-19T14:36:57;21.94;54.64
7942;HTU21D;4016;50.758;7.150;2023-09-19T14:41:58;22.05;53.00
7942;HTU21D;4016;50.758;7.150;2023-09-19T14:46:58;21.98;52.53
7942;HTU21D;4016;50.758;7.150;2023-09-19T14:51:59;21.78;53.99
7942;HTU21D;4016;50.758;7.150;2023-09-19T14:56:59;21.98;53.65
7942;HTU21D;4016;50.758;7.150;2023-09-19T15:02:06;21.83;55.13
7942;HTU21D;4016;50.758;7.150;2023-09-19T15:07:07;22.14;55.52
7942;HTU21D;4016;50.758;7.150;2023-09-19T15:12:07;22.31;52.92
7942;HTU21D;4016;50.758;7.150;2023-09-19T15:17:08;22.17;52.92
7942;HTU21D;4016;50.758;7.150;2023-09-19T15:22:08;21.97;53.92
7942;HTU21D;4016;50.758;7.150;2023-09-19T15:27:11;21.96;54.41
7942;HTU21D;4016;50.758;7.150;2023-09-19T15:32:11;21.96;55.71
7942;HTU21D;4016;50.758;7.150;2023-09-19T15:37:11;22.12;53.10
7942;HTU21D;4016;50.758;7.150;2023-09-19T15:42:12;22.02;53.29
7942;HTU21D;4016;50.758;7.150;2023-09-19T15:47:12;21.85;55.07
7942;HTU21D;4016;50.758;7.150;2023-09-19T15:52:16;21.79;54.65
7942;HTU21D;4016;50.758;7.150;2023-09-19T15:57:17;21.70;55.88
7942;HTU21D;4016;50.758;7.150;2023-09-19T16:02:17;21.52;56.54
7942;HTU21D;4016;50.758;7.150;2023-09-19T16:07:17;21.52;56.49
7942;HTU21D;4016;50.758;7.150;2023-09-19T16:12:19;21.39;57.13
7942;HTU21D;4016;50.758;7.150;2023-09-19T16:17:19;21.25;58.13
7942;HTU21D;4016;50.758;7.150;2023-09-19T16:22:19;21.21;57.48
7942;HTU21D;4016;50.758;7.150;2023-09-19T16:27:20;21.05;59.61
7942;HTU21D;4016;50.758;7.150;2023-09-19T16:32:21;21.01;58.94
7942;HTU21D;4016;50.758;7.150;2023-09-19T16:37:21;21.13;59.87
7942;HTU21D;4016;50.758;7.150;2023-09-19T16:42:23;21.14;59.54
7942;HTU21D;4016;50.758;7.150;2023-09-19T16:47:24;21.11;59.28
7942;HTU21D;4016;50.758;7.150;2023-09-19T16:52:24;20.91;61.06
7942;HTU21D;4016;50.758;7.150;2023-09-19T16:57:25;20.72;61.21
7942;HTU21D;4016;50.758;7.150;2023-09-19T17:02:25;20.55;62.82
7942;HTU21D;4016;50.758;7.150;2023-09-19T17:07:27;20.45;64.14
7942;HTU21D;4016;50.758;7.150;2023-09-19T17:12:28;20.36;64.46
7942;HTU21D;4016;50.758;7.150;2023-09-19T17:17:28;20.25;64.76
7942;HTU21D;4016;50.758;7.150;2023-09-19T17:22:29;20.19;65.35
7942;HTU21D;4016;50.758;7.150;2023-09-19T17:27:30;20.06;66.72
7942;HTU21D;4016;50.758;7.150;2023-09-19T17:32:31;19.92;67.62
7942;HTU21D;4016;50.758;7.150;2023-09-19T17:37:33;19.85;68.62
7942;HTU21D;4016;50.758;7.150;2023-09-19T17:42:33;19.85;69.11
7942;HTU21D;4016;50.758;7.150;2023-09-19T17:47:34;19.51;71.80
7942;HTU21D;4016;50.758;7.150;2023-09-19T17:52:34;19.38;74.01
7942;HTU21D;4016;50.758;7.150;2023-09-19T17:57:35;19.30;74.76
7942;HTU21D;4016;50.758;7.150;2023-09-19T18:02:37;19.61;70.71
7942;HTU21D;4016;50.758;7.150;2023-09-19T18:07:37;19.35;72.26
7942;HTU21D;4016;50.758;7.150;2023-09-19T18:12:38;19.32;72.44
7942;HTU21D;4016;50.758;7.150;2023-09-19T18:17:38;19.14;73.47
7942;HTU21D;4016;50.758;7.150;2023-09-19T18:22:38;18.99;75.05
7942;HTU21D;4016;50.758;7.150;2023-09-19T18:27:39;18.73;77.85
7942;HTU21D;4016;50.758;7.150;2023-09-19T18:32:41;18.88;76.55
7942;HTU21D;4016;50.758;7.150;2023-09-19T18:37:42;18.71;79.27
7942;HTU21D;4016;50.758;7.150;2023-09-19T18:42:42;18.76;78.01
7942;HTU21D;4016;50.758;7.150;2023-09-19T18:47:42;18.61;79.98
7942;HTU21D;4016;50.758;7.150;2023-09-19T18:52:43;18.46;81.95
7942;HTU21D;4016;50.758;7.150;2023-09-19T18:57:43;18.34;82.80
7942;HTU21D;4016;50.758;7.150;2023-09-19T19:02:44;18.27;84.57
7942;HTU21D;4016;50.758;7.150;2023-09-19T19:07:44;18.23;84.17
7942;HTU21D;4016;50.758;7.150;2023-09-19T19:12:45;18.41;83.96
7942;HTU21D;4016;50.758;7.150;2023-09-19T19:17:46;18.39;84.43
7942;HTU21D;4016;50.758;7.150;2023-09-19T19:22:46;18.26;86.22
7942;HTU21D;4016;50.758;7.150;2023-09-19T19:27:47;18.24;87.99
7942;HTU21D;4016;50.758;7.150;2023-09-19T19:32:47;18.32;87.66
7942;HTU21D;4016;50.758;7.150;2023-09-19T19:37:48;18.46;88.34
7942;HTU21D;4016;50.758;7.150;2023-09-19T19:42:49;18.37;89.34
7942;HTU21D;4016;50.758;7.150;2023-09-19T19:47:50;18.57;88.09
7942;HTU21D;4016;50.758;7.150;2023-09-19T19:52:53;18.49;89.91
7942;HTU21D;4016;50.758;7.150;2023-09-19T19:57:56;18.54;89.54
7942;HTU21D;4016;50.758;7.150;2023-09-19T20:02:59;18.57;90.11
7942;HTU21D;4016;50.758;7.150;2023-09-19T20:07:59;18.50;90.46
7942;HTU21D;4016;50.758;7.150;2023-09-19T20:13:00;18.56;89.97
7942;HTU21D;4016;50.758;7.150;2023-09-19T20:18:01;18.54;90.67
7942;HTU21D;4016;50.758;7.150;2023-09-19T20:23:02;18.50;91.76
7942;HTU21D;4016;50.758;7.150;2023-09-19T20:28:03;18.66;90.37
7942;HTU21D;4016;50.758;7.150;2023-09-19T20:33:04;18.68;92.13
7942;HTU21D;4016;50.758;7.150;2023-09-19T20:38:05;18.62;92.64
7942;HTU21D;4016;50.758;7.150;2023-09-19T20:43:06;18.48;94.53
7942;HTU21D;4016;50.758;7.150;2023-09-19T20:48:07;18.40;95.71
7942;HTU21D;4016;50.758;7.150;2023-09-19T20:53:08;18.42;95.57
7942;HTU21D;4016;50.758;7.150;2023-09-19T20:58:08;18.44;94.54
7942;HTU21D;4016;50.758;7.150;2023-09-19T21:03:09;18.64;93.27
7942;HTU21D;4016;50.758;7.150;2023-09-19T21:08:13;18.44;95.29
7942;HTU21D;4016;50.758;7.150;2023-09-19T21:13:14;18.69;92.99
7942;HTU21D;4016;50.758;7.150;2023-09-19T21:18:14;18.42;95.50
7942;HTU21D;4016;50.758;7.150;2023-09-19T21:23:15;18.67;93.09
7942;HTU21D;4016;50.758;7.150;2023-09-19T21:28:16;18.54;93.91
7942;HTU21D;4016;50.758;7.150;2023-09-19T21:33:16;18.53;95.24
7942;HTU21D;4016;50.758;7.150;2023-09-19T21:38:18;18.49;95.12
7942;HTU21D;4016;50.758;7.150;2023-09-19T21:43:19;18.51;95.39
7942;HTU21D;4016;50.758;7.150;2023-09-19T21:48:19;18.63;94.51
7942;HTU21D;4016;50.758;7.150;2023-09-19T21:53:22;18.66;93.74
7942;HTU21D;4016;50.758;7.150;2023-09-19T21:58:22;18.61;94.38
7942;HTU21D;4016;50.758;7.150;2023-09-19T22:03:22;18.57;94.79
7942;HTU21D;4016;50.758;7.150;2023-09-19T22:08:25;18.56;95.04
7942;HTU21D;4016;50.758;7.150;2023-09-19T22:13:26;18.53;95.54
7942;HTU21D;4016;50.758;7.150;2023-09-19T22:18:29;18.50;96.61
7942;HTU21D;4016;50.758;7.150;2023-09-19T22:23:30;18.38;98.32
7942;HTU21D;4016;50.758;7.150;2023-09-19T22:28:36;18.26;99.48
7942;HTU21D;4016;50.758;7.150;2023-09-19T22:33:40;18.18;100.45
7942;HTU21D;4016;50.758;7.150;2023-09-19T22:38:41;18.09;101.48
7942;HTU21D;4016;50.758;7.150;2023-09-19T22:43:41;18.00;101.93
7942;HTU21D;4016;50.758;7.150;2023-09-19T22:48:55;17.84;103.46
7942;HTU21D;4016;50.758;7.150;2023-09-19T22:53:56;17.81;104.14
7942;HTU21D;4016;50.758;7.150;2023-09-19T22:58:59;17.78;104.44
7942;HTU21D;4016;50.758;7.150;2023-09-19T23:04:00;17.69;104.44
7942;HTU21D;4016;50.758;7.150;2023-09-19T23:09:08;17.70;105.12
7942;HTU21D;4016;50.758;7.150;2023-09-19T23:14:08;17.63;105.38
7942;HTU21D;4016;50.758;7.150;2023-09-19T23:19:08;17.45;106.50
7942;HTU21D;4016;50.758;7.150;2023-09-19T23:24:24;17.39;106.56
7942;HTU21D;4016;50.758;7.150;2023-09-19T23:29:29;17.44;106.53
7942;HTU21D;4016;50.758;7.150;2023-09-19T23:34:29;17.41;107.11
7942;HTU21D;4016;50.758;7.150;2023-09-19T23:39:30;17.32;107.56
7942;HTU21D;4016;50.758;7.150;2023-09-19T23:44:30;17.21;108.17
7942;HTU21D;4016;50.758;7.150;2023-09-19T23:49:32;17.22;107.93
7942;HTU21D;4016;50.758;7.150;2023-09-19T23:54:32;17.44;106.85
7942;HTU21D;4016;50.758;7.150;2023-09-19T23:59:35;17.31;107.79
